Time;durP1;ratioP1;P1;durP2;ratioP2;P2;SDS_P1;SDS_P2;PMS_P1;PMS_P2;Temp;Humidity;BMP_temperature;BMP_pressure;BME280_temperature;BME280_humidity;BME280_pressure;Samples;Min_cycle;Max_cycle;Signal;HPM_P1;HPM_P2
2022/06/11 10:59:06;;;;;;;;;7.75;5.50;;;;;32.04;41.17;101968.53;5072892;27;45301;-69
2022/06/11 11:01:46;;;;;;;;;8.50;5.00;;;;;33.38;36.36;101973.63;5055989;28;45264;-69
2022/06/11 11:04:14;;;;;;;;;5.00;4.00;;;;;33.70;35.54;101972.09;5053852;28;45371;-69
2022/06/11 11:06:41;;;;;;;;;3.75;3.75;;;;;34.08;35.23;101968.84;5056599;28;45450;-66
2022/06/11 11:09:12;;;;;;;;;3.75;3.00;;;;;34.65;34.37;101978.84;5055981;28;45446;-66
2022/06/11 11:11:46;;;;;;;;;6.50;4.75;;;;;35.18;33.63;101974.72;5054215;28;45437;-66
2022/06/11 11:14:18;;;;;;;;;3.00;3.00;;;;;35.58;33.15;101963.75;5055356;28;45375;-67
2022/06/11 11:16:48;;;;;;;;;4.50;4.50;;;;;36.17;32.29;101977.63;5054284;28;45634;-67
2022/06/11 11:19:19;;;;;;;;;4.25;4.25;;;;;36.47;32.31;101972.38;5053303;28;46187;-68
2022/06/11 11:21:54;;;;;;;;;6.00;6.00;;;;;36.85;29.86;101968.66;5053737;28;45311;-56
2022/06/11 11:24:30;;;;;;;;;6.00;4.50;;;;;36.52;31.16;101970.78;5053299;28;45316;-56
2022/06/11 11:27:02;;;;;;;;;7.75;5.00;;;;;36.76;31.84;101967.00;5049094;28;45299;-56
2022/06/11 11:29:48;;;;;;;;;5.50;5.50;;;;;36.63;29.18;101966.78;5032963;28;46265;-56
2022/06/11 11:32:32;;;;;;;;;6.75;4.75;;;;;36.53;29.76;101969.78;5031227;28;45360;-56
2022/06/11 11:34:58;;;;;;;;;10.50;7.75;;;;;36.51;30.13;101969.13;5030491;28;45914;-56
2022/06/11 11:37:31;;;;;;;;;4.25;4.25;;;;;36.44;28.34;101964.59;5032150;28;45444;-57
2022/06/11 11:40:00;;;;;;;;;8.00;6.00;;;;;36.37;28.87;101967.19;5033776;28;45407;-58
2022/06/11 11:42:38;;;;;;;;;5.00;5.00;;;;;36.54;27.90;101966.03;5015804;28;45488;-57
2022/06/11 11:45:19;;;;;;;;;7.50;6.75;;;;;36.48;28.28;101964.06;5018131;28;45262;-58
2022/06/11 11:47:44;;;;;;;;;6.00;4.00;;;;;36.69;28.61;101966.06;5016147;28;45396;-58
2022/06/11 11:50:13;;;;;;;;;4.00;4.00;;;;;36.84;28.66;101956.13;5025337;28;46563;-58
2022/06/11 11:52:50;;;;;;;;;4.25;4.00;;;;;37.18;27.78;101954.72;5033714;28;45283;-67
2022/06/11 11:55:21;;;;;;;;;4.75;4.00;;;;;37.25;26.26;101960.25;5033627;28;45364;-66
2022/06/11 11:57:55;;;;;;;;;5.00;5.00;;;;;37.20;28.14;101944.53;5040888;28;45434;-58
2022/06/11 12:00:26;;;;;;;;;4.00;4.00;;;;;37.40;27.60;101952.94;5047130;28;46239;-64
2022/06/11 12:02:59;;;;;;;;;3.00;3.00;;;;;37.56;26.85;101951.91;5046615;28;45483;-64
2022/06/11 12:05:35;;;;;;;;;2.75;2.25;;;;;37.36;27.47;101949.78;5052579;28;45459;-64
2022/06/11 12:08:01;;;;;;;;;6.75;3.75;;;;;37.49;26.80;101945.56;5048951;28;45393;-64
2022/06/11 12:10:36;;;;;;;;;3.50;3.50;;;;;37.53;25.53;101950.41;5038164;28;46824;-65
2022/06/11 12:13:02;;;;;;;;;2.75;2.75;;;;;37.83;26.45;101942.22;5033447;28;45636;-64
2022/06/11 12:15:33;;;;;;;;;4.00;4.00;;;;;38.03;26.08;101948.69;5036251;28;45494;-56
2022/06/11 12:18:11;;;;;;;;;4.25;3.00;;;;;38.19;25.51;101958.47;5036330;28;45302;-68
2022/06/11 12:20:59;;;;;;;;;3.00;3.00;;;;;37.98;25.50;101949.28;5034798;28;45288;-70
2022/06/11 12:23:33;;;;;;;;;4.50;4.25;;;;;37.79;25.97;101951.78;5041625;28;45572;-68
2022/06/11 12:26:13;;;;;;;;;5.00;5.00;;;;;37.80;27.81;101957.00;5042270;28;45289;-65
2022/06/11 12:28:48;;;;;;;;;5.00;3.00;;;;;37.96;25.94;101947.78;5041173;28;45225;-72
2022/06/11 12:31:14;;;;;;;;;4.75;4.75;;;;;38.13;27.05;101949.22;5029421;28;46826;-73
2022/06/11 12:33:43;;;;;;;;;6.75;4.00;;;;;38.14;26.12;101936.47;5041428;28;45179;-72
2022/06/11 12:36:26;;;;;;;;;4.00;3.75;;;;;38.20;25.63;101943.88;5041485;28;45378;-73
2022/06/11 12:39:10;;;;;;;;;3.50;3.50;;;;;38.22;25.80;101941.78;5041358;28;45266;-69
2022/06/11 12:41:54;;;;;;;;;5.50;5.50;;;;;38.31;27.49;101936.03;5041379;28;46214;-68
2022/06/11 12:44:42;;;;;;;;;7.00;5.25;;;;;38.17;24.62;101925.22;5035312;28;45353;-77
2022/06/11 12:47:37;;;;;;;;;3.00;3.00;;;;;38.13;25.88;101926.66;5040103;28;45408;-71
2022/06/11 12:50:48;;;;;;;;;11.00;7.75;;;;;38.37;25.08;101933.56;5036083;28;45504;-67
2022/06/11 12:53:50;;;;;;;;;4.75;4.00;;;;;38.60;23.97;101929.56;5036800;28;45528;-66
2022/06/11 12:56:31;;;;;;;;;5.00;4.00;;;;;38.61;24.72;101928.53;5041090;28;45549;-64
2022/06/11 12:59:21;;;;;;;;;6.00;3.75;;;;;38.72;24.27;101927.19;5039637;28;45236;-67
2022/06/11 13:02:10;;;;;;;;;5.25;5.00;;;;;38.73;24.84;101925.31;5040848;28;45294;-66
2022/06/11 13:04:42;;;;;;;;;5.50;4.00;;;;;38.97;24.11;101924.81;5040706;28;46849;-69
2022/06/11 13:07:10;;;;;;;;;4.00;2.75;;;;;38.94;23.99;101922.50;5039437;28;45292;-72
2022/06/11 13:09:47;;;;;;;;;6.00;4.00;;;;;39.12;24.06;101922.00;5021804;28;45266;-69
2022/06/11 13:12:53;;;;;;;;;5.00;3.50;;;;;39.23;23.32;101911.38;5039764;28;45245;-64
2022/06/11 13:15:46;;;;;;;;;5.00;5.00;;;;;39.26;23.39;101921.03;5038596;28;45489;-67
2022/06/11 13:18:25;;;;;;;;;3.00;3.00;;;;;38.90;22.57;101913.91;5040266;28;45476;-66
2022/06/11 13:20:51;;;;;;;;;3.00;3.00;;;;;38.81;23.86;101917.81;5036209;28;45470;-65
2022/06/11 13:23:31;;;;;;;;;4.00;4.00;;;;;38.76;23.71;101917.59;5036504;28;45557;-65
2022/06/11 13:26:07;;;;;;;;;5.50;3.25;;;;;38.93;23.82;101921.66;5039694;28;46732;-67
2022/06/11 13:28:56;;;;;;;;;3.00;2.75;;;;;39.17;23.68;101911.34;5014201;28;45473;-65
2022/06/11 13:31:21;;;;;;;;;3.75;3.00;;;;;39.31;24.07;101921.25;5029675;28;45348;-65
2022/06/11 13:34:12;;;;;;;;;4.00;3.00;;;;;39.39;23.04;101915.63;5037392;28;45383;-65
2022/06/11 13:36:55;;;;;;;;;5.75;4.00;;;;;39.29;23.03;101917.06;5029073;28;46136;-65
2022/06/11 13:39:38;;;;;;;;;2.00;2.00;;;;;39.37;23.51;101909.53;5039466;28;45493;-64
2022/06/11 13:42:04;;;;;;;;;7.00;6.00;;;;;39.37;22.91;101908.72;5038504;28;45188;-68
2022/06/11 13:44:41;;;;;;;;;2.25;1.75;;;;;39.51;23.13;101907.72;5030556;28;45515;-71
2022/06/11 13:47:37;;;;;;;;;3.00;2.00;;;;;39.54;22.70;101907.34;5030353;28;45436;-65
2022/06/11 13:50:44;;;;;;;;;4.00;4.00;;;;;39.59;22.48;101909.44;5032772;28;45759;-65
2022/06/11 13:56:21;;;;;;;;;10.75;10.00;;;;;40.12;22.47;101905.78;5032280;28;45350;-64
2022/06/11 13:59:10;;;;;;;;;4.00;2.00;;;;;40.06;21.91;101903.91;5030886;28;45393;-63
2022/06/11 14:02:14;;;;;;;;;2.00;2.00;;;;;40.21;22.96;101906.38;5026518;28;45349;-65
2022/06/11 14:04:45;;;;;;;;;5.75;4.00;;;;;40.71;22.18;101898.63;4966159;28;45375;-63
2022/06/11 14:07:16;;;;;;;;;3.50;1.75;;;;;40.65;21.95;101902.16;5030744;28;45588;-62
2022/06/11 14:12:47;;;;;;;;;1.75;1.75;;;;;40.76;23.07;101884.34;5030383;28;47063;-73
2022/06/11 14:15:15;;;;;;;;;1.00;1.00;;;;;41.20;21.10;101883.56;5029110;28;45492;-68
2022/06/11 14:17:44;;;;;;;;;2.50;2.50;;;;;42.26;23.48;101883.75;5031413;28;45603;-70
2022/06/11 14:20:19;;;;;;;;;1.25;1.25;;;;;43.22;21.65;101891.31;5020358;28;45439;-68
2022/06/11 14:22:48;;;;;;;;;1.75;1.75;;;;;44.26;20.77;101884.50;5023158;28;45740;-69
2022/06/11 14:25:39;;;;;;;;;8.00;8.00;;;;;45.00;18.11;101886.69;5022976;28;45443;-70
2022/06/11 14:28:28;;;;;;;;;4.50;2.75;;;;;45.69;19.34;101876.53;5017171;28;45642;-68
2022/06/11 14:30:53;;;;;;;;;8.00;7.75;;;;;46.27;18.22;101880.78;5009301;28;48298;-67
2022/06/11 14:33:28;;;;;;;;;3.25;3.25;;;;;47.11;18.71;101875.00;5029585;28;45281;-65
2022/06/11 14:35:58;;;;;;;;;5.25;4.25;;;;;47.86;15.63;101879.66;5030295;28;45466;-66
2022/06/11 14:38:32;;;;;;;;;7.00;7.00;;;;;48.36;17.05;101879.19;5030115;28;45480;-64
2022/06/11 14:41:07;;;;;;;;;5.75;4.00;;;;;48.26;15.28;101873.63;5029934;28;46195;-53
2022/06/11 14:43:50;;;;;;;;;3.75;2.00;;;;;47.35;15.38;101870.06;5029225;28;45460;-61
2022/06/11 14:46:30;;;;;;;;;2.50;2.50;;;;;47.78;17.30;101874.59;5030068;28;45491;-64
2022/06/11 14:49:22;;;;;;;;;1.75;1.75;;;;;48.69;15.87;101877.16;5031105;28;45617;-65
2022/06/11 14:52:03;;;;;;;;;1.00;1.00;;;;;47.80;15.45;101870.47;5032013;28;45554;-65
2022/06/11 14:54:34;;;;;;;;;3.00;3.00;;;;;46.27;16.21;101864.28;5031631;28;45436;-66
2022/06/11 14:57:37;;;;;;;;;3.50;2.00;;;;;46.90;16.49;101872.03;5029484;28;45487;-66
2022/06/11 15:00:29;;;;;;;;;4.00;3.00;;;;;48.52;15.87;101870.97;5031121;28;45437;-65
2022/06/11 15:03:26;;;;;;;;;2.00;2.00;;;;;49.32;14.15;101864.94;5031855;28;45525;-66
2022/06/11 15:06:30;;;;;;;;;3.50;2.75;;;;;49.06;15.96;101868.72;5031283;28;45448;-64
2022/06/11 15:09:33;;;;;;;;;3.75;1.25;;;;;50.97;15.55;101867.13;5030099;28;45162;-64
2022/06/11 15:12:33;;;;;;;;;1.50;1.00;;;;;52.41;14.77;101871.19;5031468;28;45754;-63
2022/06/11 15:15:35;;;;;;;;;2.00;2.00;;;;;52.20;12.23;101863.06;5034129;28;46478;-65
2022/06/11 15:18:24;;;;;;;;;1.00;1.00;;;;;51.52;12.24;101868.72;5031900;28;45377;-66
2022/06/11 15:21:00;;;;;;;;;2.00;2.00;;;;;51.00;13.48;101867.38;5029679;28;46355;-68
2022/06/11 15:23:38;;;;;;;;;2.50;1.75;;;;;49.15;14.43;101866.28;5036841;28;45670;-66
2022/06/11 15:26:10;;;;;;;;;2.50;2.00;;;;;47.84;14.77;101859.75;5033960;28;46483;-68
2022/06/11 15:28:35;;;;;;;;;1.00;1.00;;;;;46.58;15.78;101851.78;5031948;28;45497;-64
2022/06/11 15:31:10;;;;;;;;;2.75;1.00;;;;;45.29;16.47;101849.97;5033955;28;45322;-69
2022/06/11 15:33:38;;;;;;;;;2.00;2.00;;;;;44.28;17.28;101849.47;5029501;28;45803;-67
2022/06/11 15:36:10;;;;;;;;;3.00;3.00;;;;;43.79;17.47;101855.38;5028860;28;46693;-69
2022/06/11 15:38:53;;;;;;;;;3.00;2.50;;;;;43.26;17.80;101850.66;5030453;28;45658;-67
2022/06/11 15:41:24;;;;;;;;;4.00;4.00;;;;;42.68;18.56;101853.91;5031442;28;45355;-67
2022/06/11 15:43:56;;;;;;;;;1.50;1.00;;;;;42.07;18.67;101850.09;5029209;28;45356;-67
2022/06/11 15:46:27;;;;;;;;;2.25;2.25;;;;;41.63;19.05;101854.56;5014716;28;47261;-67
2022/06/11 15:48:53;;;;;;;;;1.50;1.50;;;;;41.48;18.92;101861.41;5016526;28;45494;-67
2022/06/11 15:51:22;;;;;;;;;2.75;2.75;;;;;41.40;19.78;101851.56;5016270;28;45422;-65
2022/06/11 15:56:55;;;;;;;;;3.25;2.00;;;;;41.25;19.57;101849.16;5034547;28;45380;-66
2022/06/11 15:59:24;;;;;;;;;1.25;1.25;;;;;41.86;19.89;101855.91;5037293;28;45280;-68
2022/06/11 16:02:01;;;;;;;;;1.00;1.00;;;;;43.43;19.10;101862.63;5038272;28;45824;-69
2022/06/11 16:04:44;;;;;;;;;2.75;2.75;;;;;44.56;18.60;101862.44;5041778;28;45298;-69
2022/06/11 16:07:22;;;;;;;;;0.00;0.00;;;;;44.23;18.10;101864.94;5031208;28;46599;-69
2022/06/11 16:09:49;;;;;;;;;1.00;0.00;;;;;43.94;18.69;101859.31;5033943;28;45262;-61
2022/06/11 16:12:29;;;;;;;;;1.00;1.00;;;;;47.23;16.79;101851.75;5035374;28;45297;-62
2022/06/11 16:14:57;;;;;;;;;1.50;1.50;;;;;50.42;16.35;101858.78;5031305;28;45342;-62
2022/06/11 16:17:35;;;;;;;;;0.50;0.50;;;;;53.10;14.81;101866.94;5033372;28;46267;-62
2022/06/11 16:20:29;;;;;;;;;2.00;2.00;;;;;52.91;13.69;101864.16;5026650;28;45594;-63
2022/06/11 16:23:00;;;;;;;;;2.00;2.00;;;;;50.33;14.08;101859.63;5040817;28;45470;-63
2022/06/11 16:25:47;;;;;;;;;2.00;2.00;;;;;50.72;14.37;101860.63;5023901;28;45343;-62
2022/06/11 16:28:20;;;;;;;;;2.00;2.00;;;;;49.17;13.90;101856.59;5041033;28;46552;-63
2022/06/11 16:30:47;;;;;;;;;0.00;0.00;;;;;47.35;15.41;101850.78;5041574;28;45392;-62
2022/06/11 16:33:22;;;;;;;;;2.50;2.50;;;;;46.31;15.29;101841.50;5041644;28;45459;-63
2022/06/11 16:35:53;;;;;;;;;1.00;1.00;;;;;45.50;16.18;101837.44;5041164;28;45416;-62
2022/06/11 16:38:24;;;;;;;;;1.75;1.75;;;;;44.49;16.90;101836.25;5032241;28;45628;-63
2022/06/11 16:40:52;;;;;;;;;2.00;2.00;;;;;43.53;17.46;101843.75;5032796;28;45508;-63
2022/06/11 16:43:25;;;;;;;;;4.00;3.00;;;;;42.83;18.29;101843.41;5031184;28;45438;-62
2022/06/11 16:45:57;;;;;;;;;2.00;2.00;;;;;42.48;18.24;101848.66;5031666;28;46271;-61
2022/06/11 16:48:27;;;;;;;;;2.75;2.00;;;;;41.95;18.68;101838.19;5032346;28;46560;-62
2022/06/11 16:56:46;;;;;;;;;2.00;2.00;;;;;40.36;20.01;101832.63;5031860;28;45388;-64
2022/06/11 16:59:23;;;;;;;;;3.25;3.25;;;;;40.07;20.72;101855.72;5033064;28;45774;-63
2022/06/11 17:03:05;;;;;;;;;3.25;2.50;;;;;39.82;20.88;101839.94;5031560;28;45292;-62
2022/06/11 17:04:53;;;;;;;;;2.25;0.75;;;;;39.65;20.89;101844.16;5039134;28;45298;-65
2022/06/11 17:07:31;;;;;;;;;3.75;3.75;;;;;39.43;21.34;101840.69;5041191;28;45286;-62
2022/06/11 17:09:56;;;;;;;;;2.75;0.75;;;;;39.26;21.49;101834.00;5029028;28;45304;-63
2022/06/11 17:12:51;;;;;;;;;2.00;2.00;;;;;39.23;21.38;101842.53;5040707;28;51448;-62
2022/06/11 17:15:20;;;;;;;;;3.00;1.25;;;;;40.02;21.33;101841.88;5021837;28;45396;-69
2022/06/11 17:17:53;;;;;;;;;3.00;1.75;;;;;41.30;20.56;101841.16;5039720;28;45298;-65
2022/06/11 17:20:40;;;;;;;;;2.50;2.25;;;;;42.04;19.56;101842.28;5039022;28;46110;-65
2022/06/11 17:23:14;;;;;;;;;2.50;0.00;;;;;41.51;20.06;101839.97;5030748;28;45468;-63
2022/06/11 17:25:40;;;;;;;;;3.75;2.75;;;;;40.95;20.00;101837.09;5039163;28;45393;-65
2022/06/11 17:28:22;;;;;;;;;3.00;3.00;;;;;40.67;20.27;101842.84;5039511;28;45408;-66
2022/06/11 17:30:47;;;;;;;;;1.75;1.00;;;;;40.41;20.61;101846.47;5040350;28;46502;-65
2022/06/11 17:33:12;;;;;;;;;3.25;3.25;;;;;40.15;20.63;101850.03;5040801;28;45509;-65
2022/06/11 17:35:39;;;;;;;;;2.00;1.25;;;;;40.02;21.05;101844.59;5022301;28;45362;-65
2022/06/11 17:38:04;;;;;;;;;2.75;2.75;;;;;39.74;21.22;101850.22;5032553;28;45341;-65
2022/06/11 17:40:32;;;;;;;;;2.50;2.50;;;;;39.59;21.30;101852.28;5040233;28;45355;-65
2022/06/11 17:42:58;;;;;;;;;3.00;3.00;;;;;39.29;21.51;101851.78;5040305;28;45557;-66
2022/06/11 17:45:27;;;;;;;;;4.75;3.00;;;;;39.03;21.47;101850.59;5040261;28;45208;-65
2022/06/11 17:47:52;;;;;;;;;5.00;4.00;;;;;38.87;22.11;101854.53;5039564;28;45319;-66
2022/06/11 17:50:20;;;;;;;;;5.50;3.50;;;;;38.87;22.29;101849.09;5037879;28;45405;-65
2022/06/11 17:52:53;;;;;;;;;4.00;4.00;;;;;38.80;21.85;101853.63;5039087;28;45486;-66
2022/06/11 17:55:24;;;;;;;;;4.50;4.00;;;;;38.78;21.85;101841.28;5039861;28;45502;-68
2022/06/11 17:57:52;;;;;;;;;5.25;3.75;;;;;38.82;22.21;101854.25;5033441;28;45510;-61
2022/06/11 18:00:21;;;;;;;;;3.75;2.50;;;;;38.71;22.07;101859.44;5039506;28;47157;-63
2022/06/11 18:02:53;;;;;;;;;3.25;3.00;;;;;38.60;22.20;101848.06;5040040;28;45300;-64
2022/06/11 18:05:26;;;;;;;;;4.50;2.75;;;;;38.40;22.45;101857.97;5040432;28;45390;-63
2022/06/11 18:07:52;;;;;;;;;2.50;2.50;;;;;38.29;22.77;101863.94;5039207;28;45750;-63
2022/06/11 18:10:22;;;;;;;;;4.00;3.50;;;;;38.22;23.33;101857.63;5040068;28;46207;-61
2022/06/11 18:12:48;;;;;;;;;5.75;3.25;;;;;38.13;22.65;101856.06;5021423;28;45424;-62
2022/06/11 18:15:14;;;;;;;;;3.75;3.25;;;;;38.19;23.61;101852.59;5043581;28;45337;-63
2022/06/11 18:17:40;;;;;;;;;4.75;4.00;;;;;38.32;22.26;101858.13;5041702;28;45298;-59
2022/06/11 18:20:08;;;;;;;;;3.75;3.50;;;;;38.30;22.85;101857.47;5039775;28;46265;-61
2022/06/11 18:25:18;;;;;;;;;5.25;4.75;;;;;38.15;24.25;101857.53;5039672;28;45272;-62
2022/06/11 18:27:48;;;;;;;;;2.75;2.75;;;;;38.20;22.82;101863.25;5039531;28;45400;-61
2022/06/11 18:30:17;;;;;;;;;5.00;5.00;;;;;38.18;23.31;101854.47;5036992;28;47390;-62
2022/06/11 18:32:42;;;;;;;;;5.00;5.00;;;;;38.10;23.75;101851.88;5036307;28;45436;-64
2022/06/11 18:35:09;;;;;;;;;4.00;4.00;;;;;38.08;23.17;101859.38;5039570;28;45406;-63
2022/06/11 18:37:35;;;;;;;;;4.00;4.00;;;;;38.02;22.85;101858.25;5029398;28;45898;-62
2022/06/11 18:40:00;;;;;;;;;2.25;2.25;;;;;37.82;23.22;101856.41;5030297;28;45546;-64
2022/06/11 18:42:25;;;;;;;;;3.75;2.50;;;;;37.76;23.26;101863.47;5032039;28;46520;-61
2022/06/11 18:44:51;;;;;;;;;5.00;4.00;;;;;37.74;23.10;101866.38;5029514;28;45478;-61
2022/06/11 18:47:16;;;;;;;;;3.25;3.25;;;;;37.77;24.51;101861.59;5036258;28;45388;-64
2022/06/11 18:49:42;;;;;;;;;5.00;5.00;;;;;37.74;23.36;101873.66;5038907;28;46441;-63
2022/06/11 18:52:08;;;;;;;;;4.00;4.00;;;;;37.52;23.26;101861.94;5039020;28;45265;-61
2022/06/11 18:54:33;;;;;;;;;3.50;3.50;;;;;37.48;23.01;101863.34;5039496;28;45368;-62
2022/06/11 18:57:03;;;;;;;;;7.50;4.00;;;;;37.47;24.51;101863.56;5039046;28;45228;-61
2022/06/11 18:59:32;;;;;;;;;6.00;3.50;;;;;37.53;24.87;101866.31;5038386;28;47321;-63
2022/06/11 19:01:58;;;;;;;;;5.75;4.75;;;;;37.51;23.54;101862.13;5038712;28;46002;-66
2022/06/11 19:04:24;;;;;;;;;5.25;3.00;;;;;37.42;25.08;101867.66;5030480;28;45408;-66
2022/06/11 19:06:50;;;;;;;;;6.50;5.50;;;;;37.49;24.71;101862.31;5033209;28;45369;-66
2022/06/11 19:09:16;;;;;;;;;1.50;1.50;;;;;37.57;23.86;101873.03;5039242;28;45315;-65
2022/06/11 19:11:41;;;;;;;;;6.50;5.00;;;;;37.56;23.26;101865.94;5033123;28;45318;-61
2022/06/11 19:14:07;;;;;;;;;7.75;4.00;;;;;37.41;23.41;101863.25;5033693;28;45258;-62
2022/06/11 19:16:33;;;;;;;;;6.25;4.50;;;;;37.34;23.84;101869.66;5049979;28;46502;-59
2022/06/11 19:18:58;;;;;;;;;9.00;6.25;;;;;37.31;23.46;101868.16;5039769;28;45387;-60
2022/06/11 19:21:24;;;;;;;;;8.25;7.00;;;;;37.17;23.96;101867.13;5033916;28;45310;-59
2022/06/11 19:23:52;;;;;;;;;6.75;6.00;;;;;37.06;23.85;101867.63;5038858;28;45497;-60
2022/06/11 19:26:22;;;;;;;;;5.00;5.00;;;;;37.02;23.43;101882.56;5030026;28;45481;-60
2022/06/11 19:28:47;;;;;;;;;5.75;4.00;;;;;36.93;23.74;101880.16;5037152;28;46162;-59
2022/06/11 19:31:13;;;;;;;;;5.00;4.00;;;;;36.82;23.77;101862.50;5042729;28;45422;-59
2022/06/11 19:33:38;;;;;;;;;8.75;6.25;;;;;36.76;24.69;101874.06;5042571;28;45400;-62
2022/06/11 19:36:15;;;;;;;;;4.00;4.00;;;;;36.73;24.23;101871.72;5042422;28;45347;-64
2022/06/11 19:38:45;;;;;;;;;6.00;6.00;;;;;36.73;23.96;101874.44;5041892;28;46204;-62
2022/06/11 19:41:12;;;;;;;;;6.25;6.25;;;;;36.66;24.31;101873.50;5042336;28;45513;-60
2022/06/11 19:43:43;;;;;;;;;6.00;5.00;;;;;36.74;24.39;101887.78;5036110;28;45424;-60
2022/06/11 19:46:11;;;;;;;;;11.50;9.50;;;;;36.58;24.33;101879.00;5015232;28;45591;-56
2022/06/11 19:48:40;;;;;;;;;5.00;4.50;;;;;36.37;24.24;101885.13;5038689;28;46550;-56
2022/06/11 19:51:08;;;;;;;;;6.00;6.00;;;;;36.25;24.88;101887.44;5033261;28;45611;-56
2022/06/11 19:53:34;;;;;;;;;7.25;7.00;;;;;36.31;24.60;101905.66;5034532;28;45517;-62
2022/06/11 19:56:01;;;;;;;;;9.25;5.00;;;;;36.39;25.01;101919.13;5035470;28;45390;-61
2022/06/11 19:58:26;;;;;;;;;9.75;7.00;;;;;36.28;25.50;101918.69;5031424;28;45521;-57
2022/06/11 20:00:52;;;;;;;;;6.00;6.00;;;;;36.00;25.87;101908.41;5036743;28;45321;-61
2022/06/11 20:03:17;;;;;;;;;10.00;6.50;;;;;35.77;25.86;101916.50;5041985;28;45218;-72
2022/06/11 20:05:45;;;;;;;;;8.50;7.25;;;;;35.67;26.27;101915.91;5033179;28;45217;-60
2022/06/11 20:08:12;;;;;;;;;5.00;5.00;;;;;35.26;27.23;101929.59;5040351;28;46186;-60
2022/06/11 20:10:37;;;;;;;;;8.50;6.25;;;;;35.26;27.04;101920.66;5042034;28;45313;-60
2022/06/11 20:13:03;;;;;;;;;9.00;5.50;;;;;35.19;27.36;101942.09;5041296;28;45288;-63
2022/06/11 20:15:29;;;;;;;;;10.00;7.00;;;;;35.08;26.74;101939.78;5052741;28;45266;-61
2022/06/11 20:17:56;;;;;;;;;7.50;5.75;;;;;35.05;26.74;101943.69;5041559;28;46017;-60
2022/06/11 20:20:22;;;;;;;;;6.00;5.00;;;;;34.75;28.14;101950.63;5038940;28;45597;-54
2022/06/11 20:22:48;;;;;;;;;8.75;7.00;;;;;34.80;27.72;101954.69;5012814;28;45187;-64
2022/06/11 20:25:15;;;;;;;;;10.25;8.50;;;;;34.72;27.56;101969.03;5037800;28;45491;-62
2022/06/11 20:27:41;;;;;;;;;13.25;9.25;;;;;34.61;26.74;101967.53;5041319;28;45344;-62
2022/06/11 20:30:07;;;;;;;;;16.00;10.50;;;;;34.51;27.40;101964.16;5040675;28;45271;-66
2022/06/11 20:32:32;;;;;;;;;13.25;9.50;;;;;34.51;27.74;101968.72;5041610;28;45293;-64
2022/06/11 20:34:58;;;;;;;;;12.50;11.50;;;;;34.42;27.66;101966.00;5023032;28;45293;-62
2022/06/11 20:37:24;;;;;;;;;11.25;9.75;;;;;34.38;28.19;101972.75;5041264;28;45361;-62
2022/06/11 20:39:50;;;;;;;;;6.75;6.00;;;;;34.33;27.76;101974.25;5041422;28;45578;-62
2022/06/11 20:42:17;;;;;;;;;9.00;9.00;;;;;34.23;27.47;101973.56;5041186;28;45538;-67
2022/06/11 20:44:42;;;;;;;;;11.00;10.00;;;;;34.14;28.03;101976.25;5041062;28;45420;-67
2022/06/11 20:47:09;;;;;;;;;11.50;9.00;;;;;34.03;28.08;101978.41;5022304;28;47017;-68
2022/06/11 20:49:41;;;;;;;;;10.50;9.25;;;;;33.85;28.45;101987.50;5041159;28;45325;-68
2022/06/11 20:52:07;;;;;;;;;9.75;9.00;;;;;33.91;28.23;101988.69;5017867;28;45443;-66
2022/06/11 20:54:33;;;;;;;;;10.50;8.00;;;;;33.88;27.74;101989.03;5032321;28;45466;-66
2022/06/11 20:56:59;;;;;;;;;7.25;7.25;;;;;33.90;28.21;101989.69;5040968;28;45383;-56
2022/06/11 20:59:24;;;;;;;;;10.25;9.50;;;;;34.10;28.11;101996.50;5040771;28;45258;-55
2022/06/11 21:01:49;;;;;;;;;8.25;6.00;;;;;34.25;28.01;101993.16;5040033;28;46558;-55
2022/06/11 21:04:16;;;;;;;;;6.25;5.00;;;;;34.29;27.77;101994.50;5036255;28;45511;-56
2022/06/11 21:09:21;;;;;;;;;10.75;6.00;;;;;34.40;28.61;101994.19;5041084;28;47274;-55
2022/06/11 21:09:32;;;;;;;;;8.25;4.75;;;;;34.58;27.90;101996.72;5040780;28;45286;-56
2022/06/11 21:11:59;;;;;;;;;5.75;4.00;;;;;34.70;27.28;101992.69;5041251;28;45296;-55
2022/06/11 21:14:27;;;;;;;;;11.25;6.75;;;;;34.65;27.77;102001.31;5055066;28;45488;-56
2022/06/11 21:16:53;;;;;;;;;9.75;6.00;;;;;34.64;27.86;102007.72;5045720;28;46437;-56
2022/06/11 21:19:19;;;;;;;;;7.50;4.50;;;;;34.56;26.71;101996.91;5038726;28;45347;-56
2022/06/11 21:22:17;;;;;;;;;5.50;5.50;;;;;34.40;27.08;102007.69;5035684;28;45476;-56
2022/06/11 21:24:48;;;;;;;;;6.75;5.00;;;;;34.34;27.56;102014.56;5034814;28;45509;-55
2022/06/11 21:27:19;;;;;;;;;6.00;5.00;;;;;33.76;28.93;102011.88;5039538;28;46561;-56
2022/06/11 21:29:44;;;;;;;;;7.75;5.25;;;;;33.71;28.43;102008.81;5037100;28;45688;-54
2022/06/11 21:32:10;;;;;;;;;5.25;4.75;;;;;33.79;27.90;102008.84;5029914;28;45444;-64
2022/06/11 21:34:36;;;;;;;;;6.00;4.25;;;;;33.52;28.00;102018.00;5037064;28;45649;-63
2022/06/11 21:37:01;;;;;;;;;7.25;5.25;;;;;33.22;28.33;102013.94;5040076;28;45313;-65
2022/06/11 21:39:27;;;;;;;;;5.50;4.50;;;;;33.04;28.52;102029.28;5041458;28;45374;-65
2022/06/11 21:41:52;;;;;;;;;9.25;3.00;;;;;32.97;28.59;102026.41;5039531;28;45352;-65
2022/06/11 21:44:32;;;;;;;;;4.00;4.00;;;;;32.83;28.50;102017.03;5044501;28;45258;-65
2022/06/11 21:47:01;;;;;;;;;4.00;4.00;;;;;32.65;27.96;102021.59;5033032;28;45305;-66
2022/06/11 21:49:27;;;;;;;;;4.00;3.50;;;;;32.52;28.61;102024.66;5027579;28;45665;-66
2022/06/11 21:51:59;;;;;;;;;10.50;5.00;;;;;32.57;28.58;102022.34;5040309;28;45345;-67
2022/06/11 21:54:26;;;;;;;;;3.75;3.25;;;;;32.44;28.63;102021.03;5040352;28;45296;-65
2022/06/11 21:56:52;;;;;;;;;3.00;2.50;;;;;32.35;28.42;102030.88;5041634;28;45351;-63
2022/06/11 21:59:18;;;;;;;;;7.00;3.75;;;;;32.27;28.51;102031.66;5039575;28;45427;-64
2022/06/11 22:01:47;;;;;;;;;4.25;2.50;;;;;32.29;28.50;102024.28;5039996;28;45324;-64
2022/06/11 22:04:15;;;;;;;;;6.00;4.25;;;;;32.36;28.31;102025.34;5039967;28;45214;-63
2022/06/11 22:06:41;;;;;;;;;9.50;6.75;;;;;32.24;27.96;102021.19;5044310;28;45700;-66
2022/06/11 22:09:07;;;;;;;;;7.50;5.75;;;;;32.21;28.40;102015.22;5040157;28;45305;-64
2022/06/11 22:11:35;;;;;;;;;3.50;3.50;;;;;32.15;28.84;102024.75;5040102;28;45335;-74
2022/06/11 22:14:00;;;;;;;;;6.00;5.75;;;;;32.12;28.21;102019.69;5039448;28;45307;-66
2022/06/11 22:16:28;;;;;;;;;5.75;4.00;;;;;32.19;28.54;102031.53;5039630;28;45245;-64
2022/06/11 22:18:58;;;;;;;;;3.75;3.75;;;;;32.15;28.29;102027.47;5035632;28;45470;-65
2022/06/11 22:21:33;;;;;;;;;0.50;0.00;;;;;32.08;28.49;102029.06;5039297;28;45246;-64
2022/06/11 22:23:59;;;;;;;;;6.00;2.00;;;;;31.96;28.24;102020.34;5046864;28;45423;-64
2022/06/11 22:26:27;;;;;;;;;4.25;3.25;;;;;31.95;28.72;102020.50;5039476;28;45425;-64
2022/06/11 22:28:56;;;;;;;;;3.00;3.00;;;;;31.93;28.33;102025.19;5039516;28;45327;-66
2022/06/11 22:31:24;;;;;;;;;4.75;3.75;;;;;31.96;28.45;102030.25;5023692;28;45359;-63
2022/06/11 22:33:50;;;;;;;;;4.00;2.75;;;;;31.91;28.28;102027.19;5031253;28;45232;-72
2022/06/11 22:36:17;;;;;;;;;6.50;3.50;;;;;31.81;28.39;102029.91;5031511;28;46359;-72
2022/06/11 22:38:42;;;;;;;;;5.00;3.75;;;;;31.83;28.26;102033.28;5030479;28;45542;-65
2022/06/11 22:41:10;;;;;;;;;2.75;2.75;;;;;31.92;28.13;102037.78;5030106;28;45220;-67
2022/06/11 22:43:35;;;;;;;;;2.50;2.50;;;;;31.90;28.43;102038.94;5031116;28;45942;-66
2022/06/11 22:46:01;;;;;;;;;5.25;3.25;;;;;31.90;28.05;102034.41;5033514;28;46011;-67
2022/06/11 22:48:27;;;;;;;;;3.25;3.25;;;;;31.91;28.31;102035.25;5039416;28;45286;-74
2022/06/11 22:50:53;;;;;;;;;5.75;2.50;;;;;31.93;28.05;102028.72;5020310;28;45361;-70
2022/06/11 22:53:19;;;;;;;;;27.25;20.25;;;;;31.95;28.26;102036.63;5039074;28;45563;-70
2022/06/11 22:55:46;;;;;;;;;10.00;8.25;;;;;31.90;28.17;102036.25;5039513;28;46379;-70
2022/06/11 22:58:11;;;;;;;;;11.75;7.00;;;;;31.79;28.17;102031.91;5033769;28;45326;-69
2022/06/11 23:00:39;;;;;;;;;7.75;7.00;;;;;31.83;28.15;102035.97;5030181;28;45487;-67
2022/06/11 23:03:09;;;;;;;;;12.50;6.00;;;;;31.84;28.38;102031.44;5038810;28;45356;-67
2022/06/11 23:05:35;;;;;;;;;4.75;4.00;;;;;31.84;28.29;102036.81;5039136;28;46378;-72